createdAt,value
2022-11-15T00:00:13.185Z,75.59
2022-11-15T00:01:19.055Z,75.88
2022-11-15T00:02:21.006Z,76.07
2022-11-15T00:03:24.174Z,76.17
2022-11-15T00:04:26.057Z,75.82
2022-11-15T00:05:27.859Z,75.23
2022-11-15T00:06:29.607Z,75.39
2022-11-15T00:07:54.016Z,75.02
2022-11-15T00:08:53.324Z,74.45
2022-11-15T00:09:55.151Z,74.94
2022-11-15T00:10:57.877Z,75.13
2022-11-15T00:11:59.665Z,74.80
2022-11-15T00:13:01.550Z,74.90
2022-11-15T00:14:03.934Z,74.91
2022-11-15T00:15:05.963Z,74.52
2022-11-15T00:16:07.844Z,74.61
2022-11-15T00:17:09.631Z,74.93
2022-11-15T00:18:15.378Z,74.99
2022-11-15T00:19:17.655Z,75.26
2022-11-15T00:20:19.492Z,74.74
2022-11-15T00:21:21.232Z,75.22
2022-11-15T00:22:23.404Z,75.11
2022-11-15T00:23:25.304Z,75.30
2022-11-15T00:24:27.204Z,75.04
2022-11-15T00:25:28.989Z,74.90
2022-11-15T00:26:30.722Z,74.58
2022-11-15T00:27:32.566Z,74.62
2022-11-15T00:28:34.398Z,75.15
2022-11-15T00:29:37.912Z,75.27
2022-11-15T00:30:39.697Z,75.00
2022-11-15T00:31:41.478Z,75.47
2022-11-15T00:32:43.239Z,74.92
2022-11-15T00:33:45.515Z,75.42
2022-11-15T00:34:47.378Z,74.56
2022-11-15T00:35:49.148Z,74.56
2022-11-15T00:36:50.954Z,74.29
2022-11-15T00:37:53.780Z,74.64
2022-11-15T00:38:55.662Z,75.08
2022-11-15T00:39:57.573Z,74.76
2022-11-15T00:40:59.349Z,74.90
2022-11-15T00:42:01.156Z,74.92
2022-11-15T00:43:03.017Z,74.78
2022-11-15T00:44:04.929Z,75.31
2022-11-15T00:45:07.075Z,74.75
2022-11-15T00:46:10.882Z,74.89
2022-11-15T00:47:12.757Z,75.39
2022-11-15T00:48:14.503Z,74.72
2022-11-15T00:49:16.264Z,74.94
2022-11-15T00:50:18.420Z,74.33
2022-11-15T00:51:20.250Z,75.01
2022-11-15T00:52:22.176Z,74.60
2022-11-15T00:53:23.924Z,74.90
2022-11-15T00:54:25.645Z,74.85
2022-11-15T00:55:27.557Z,74.60
2022-11-15T00:56:29.515Z,75.17
2022-11-15T00:57:31.403Z,75.18
2022-11-15T00:58:33.239Z,75.65
2022-11-15T00:59:35.066Z,75.91
2022-11-15T01:00:37.013Z,76.06
2022-11-15T01:01:38.873Z,76.87
2022-11-15T01:02:40.665Z,76.67
2022-11-15T01:03:42.740Z,76.90
2022-11-15T01:04:44.517Z,76.93
2022-11-15T01:05:46.296Z,77.38
2022-11-15T01:06:48.222Z,76.61
2022-11-15T01:07:56.857Z,76.92
2022-11-15T01:08:58.626Z,76.12
2022-11-15T01:10:00.405Z,76.02
2022-11-15T01:11:05.512Z,76.29
2022-11-15T01:12:07.373Z,75.76
2022-11-15T01:13:09.380Z,75.62
2022-11-15T01:14:11.294Z,75.66
2022-11-15T01:15:13.171Z,75.55
2022-11-15T01:16:18.234Z,75.36
2022-11-15T01:17:20.090Z,75.67
2022-11-15T01:18:21.889Z,75.69
2022-11-15T01:19:23.674Z,74.99
2022-11-15T01:20:25.622Z,75.76
2022-11-15T01:21:27.463Z,76.30
2022-11-15T01:22:29.344Z,76.48
2022-11-15T01:23:31.477Z,76.28
2022-11-15T01:24:33.627Z,76.06
2022-11-15T01:25:35.383Z,76.23
2022-11-15T01:26:37.164Z,76.52
2022-11-15T01:27:38.980Z,76.60
2022-11-15T01:28:41.865Z,76.06
2022-11-15T01:29:43.620Z,75.89
2022-11-15T01:30:45.477Z,76.20
2022-11-15T01:31:47.211Z,75.61
2022-11-15T01:32:49.091Z,75.79
2022-11-15T01:33:50.894Z,75.64
2022-11-15T01:34:52.638Z,75.81
2022-11-15T01:35:54.368Z,75.17
2022-11-15T01:36:56.195Z,76.00
2022-11-15T01:37:58.030Z,75.39
2022-11-15T01:39:00.390Z,75.67
2022-11-15T01:40:02.254Z,76.66
2022-11-15T01:41:04.413Z,76.08
2022-11-15T01:42:06.211Z,76.67
2022-11-15T01:43:28.142Z,76.12
2022-11-15T01:44:43.558Z,76.08
2022-11-15T01:45:47.129Z,76.11
2022-11-15T01:46:49.389Z,76.07
2022-11-15T01:47:53.963Z,76.28
2022-11-15T01:48:58.275Z,76.39
2022-11-15T01:50:01.948Z,76.31
2022-11-15T01:51:10.538Z,76.84
2022-11-15T01:52:15.022Z,76.65
2022-11-15T01:53:17.513Z,77.24
2022-11-15T01:54:21.678Z,77.62
2022-11-15T01:55:26.265Z,77.52
2022-11-15T01:56:30.543Z,77.26
2022-11-15T01:57:32.383Z,77.50
2022-11-15T01:58:34.771Z,77.29
2022-11-15T01:59:37.706Z,78.61
2022-11-15T02:00:39.679Z,78.51
2022-11-15T02:01:41.947Z,78.01
2022-11-15T02:02:44.143Z,78.81
2022-11-15T02:03:58.378Z,78.59
2022-11-15T02:05:00.370Z,77.88
2022-11-15T02:06:03.359Z,77.98
2022-11-15T02:07:06.432Z,77.78
2022-11-15T02:08:09.785Z,77.04
2022-11-15T02:09:12.466Z,77.55
2022-11-15T02:10:18.127Z,77.54
2022-11-15T02:11:20.364Z,77.44
2022-11-15T02:12:23.990Z,77.03
2022-11-15T02:13:25.800Z,78.04
2022-11-15T02:14:29.063Z,77.64
2022-11-15T02:15:37.448Z,77.75
2022-11-15T02:16:48.074Z,77.21
2022-11-15T02:17:57.899Z,77.56
2022-11-15T02:19:18.349Z,77.13
2022-11-15T02:20:40.580Z,77.21
2022-11-15T02:21:57.762Z,77.33
2022-11-15T02:23:05.381Z,77.74
2022-11-15T02:24:26.165Z,77.64
2022-11-15T02:25:46.486Z,77.17
2022-11-15T02:27:07.091Z,77.59
2022-11-15T02:28:28.018Z,77.50
2022-11-15T02:29:29.767Z,77.15
2022-11-15T02:30:49.706Z,77.31
2022-11-15T02:32:04.351Z,76.99
2022-11-15T02:33:26.375Z,77.22
2022-11-15T02:34:30.715Z,76.57
2022-11-15T02:35:38.430Z,77.39
2022-11-15T02:36:55.652Z,76.83
2022-11-15T02:37:59.249Z,76.68
2022-11-15T02:39:01.114Z,76.69
2022-11-15T02:40:35.279Z,76.60
2022-11-15T02:41:43.262Z,76.62
2022-11-15T02:43:09.571Z,77.39
2022-11-15T02:44:16.506Z,76.67
2022-11-15T02:45:20.476Z,77.43
2022-11-15T02:47:01.618Z,77.56
2022-11-15T02:48:05.892Z,77.06
2022-11-15T02:49:07.856Z,76.40
2022-11-15T02:50:12.431Z,76.27
2022-11-15T02:51:15.078Z,77.19
2022-11-15T02:52:24.229Z,77.35
2022-11-15T02:53:26.841Z,76.10
2022-11-15T02:54:32.980Z,76.99
2022-11-15T02:55:35.889Z,76.66
2022-11-15T02:56:37.798Z,76.18
2022-11-15T02:57:39.590Z,76.50
2022-11-15T02:59:13.736Z,76.16
2022-11-15T03:00:22.256Z,77.09
2022-11-15T03:01:39.923Z,77.02
2022-11-15T03:02:41.677Z,76.92
2022-11-15T03:03:55.382Z,76.92
2022-11-15T03:04:59.739Z,77.52
2022-11-15T03:06:07.732Z,77.01
2022-11-15T03:07:20.279Z,77.13
2022-11-15T03:08:24.885Z,77.22
2022-11-15T03:09:32.319Z,76.40
2022-11-15T03:10:41.862Z,77.04
2022-11-15T03:11:48.818Z,77.06
2022-11-15T03:12:56.211Z,76.42
2022-11-15T03:14:16.560Z,77.18
2022-11-15T03:15:38.354Z,77.10
2022-11-15T03:16:46.166Z,76.30
2022-11-15T03:17:56.969Z,77.05
2022-11-15T03:19:06.486Z,76.82
2022-11-15T03:20:09.884Z,77.01
2022-11-15T03:21:13.838Z,76.87
2022-11-15T03:22:19.260Z,77.45
2022-11-15T03:23:21.091Z,77.49
2022-11-15T03:24:26.354Z,78.01
2022-11-15T03:25:30.411Z,77.91
2022-11-15T03:26:33.659Z,77.64
2022-11-15T03:27:41.240Z,78.03
2022-11-15T03:28:43.507Z,77.96
2022-11-15T03:29:47.979Z,77.13
2022-11-15T03:30:51.277Z,76.74
2022-11-15T03:31:57.123Z,77.00
2022-11-15T03:33:00.167Z,77.24
2022-11-15T03:34:05.973Z,76.61
2022-11-15T03:35:13.342Z,77.51
2022-11-15T03:36:16.327Z,77.57
2022-11-15T03:37:18.975Z,77.30
2022-11-15T03:38:28.343Z,77.97
2022-11-15T03:39:30.398Z,77.91
2022-11-15T03:40:37.157Z,77.79
2022-11-15T03:41:49.031Z,76.94
2022-11-15T03:42:58.318Z,77.76
2022-11-15T03:44:11.426Z,77.73
2022-11-15T03:45:19.342Z,77.03
2022-11-15T03:46:25.762Z,77.58
2022-11-15T03:47:32.891Z,78.01
2022-11-15T03:48:41.417Z,77.57
2022-11-15T03:49:48.106Z,78.41
2022-11-15T03:50:50.372Z,78.89
2022-11-15T03:51:52.180Z,77.93
2022-11-15T03:52:55.577Z,77.78
2022-11-15T03:53:57.421Z,77.92
2022-11-15T03:55:01.742Z,78.13
2022-11-15T03:56:03.680Z,77.67
2022-11-15T03:57:05.544Z,77.84
2022-11-15T03:58:07.585Z,78.20
2022-11-15T03:59:09.426Z,78.19
2022-11-15T04:00:12.203Z,78.33
2022-11-15T04:01:14.078Z,78.11
2022-11-15T04:02:15.967Z,78.06
2022-11-15T04:03:17.831Z,77.51
2022-11-15T04:04:19.630Z,77.93
2022-11-15T04:05:21.695Z,77.67
2022-11-15T04:06:23.529Z,77.39
2022-11-15T04:07:25.288Z,78.10
2022-11-15T04:08:27.339Z,77.14
2022-11-15T04:09:29.164Z,77.62
2022-11-15T04:10:31.053Z,77.81
2022-11-15T04:11:32.881Z,77.52
2022-11-15T04:12:36.065Z,77.79
2022-11-15T04:13:37.846Z,78.05
2022-11-15T04:14:59.633Z,77.71
2022-11-15T04:16:01.465Z,77.90
2022-11-15T04:17:03.315Z,78.51
2022-11-15T04:18:05.126Z,77.81
2022-11-15T04:19:25.299Z,77.92
2022-11-15T04:20:46.330Z,77.53
2022-11-15T04:22:06.486Z,78.66
2022-11-15T04:23:34.319Z,78.80
2022-11-15T04:24:36.383Z,78.19
2022-11-15T04:25:38.271Z,78.22
2022-11-15T04:26:40.057Z,78.12
2022-11-15T04:27:41.850Z,78.55
2022-11-15T04:29:02.232Z,77.58
2022-11-15T04:30:04.217Z,77.37
2022-11-15T04:31:06.083Z,78.20
2022-11-15T04:32:08.413Z,78.17
2022-11-15T04:33:10.338Z,77.85
2022-11-15T04:34:12.157Z,78.44
2022-11-15T04:35:13.995Z,79.69
2022-11-15T04:36:34.409Z,79.23
2022-11-15T04:37:36.230Z,78.83
2022-11-15T04:38:38.279Z,79.99
2022-11-15T04:39:40.956Z,79.60
2022-11-15T04:40:42.687Z,78.83
2022-11-15T04:41:44.551Z,79.37
2022-11-15T04:42:46.357Z,78.74
2022-11-15T04:43:48.167Z,78.68
2022-11-15T04:44:50.037Z,79.38
2022-11-15T04:45:51.820Z,78.42
2022-11-15T04:46:53.580Z,79.19
2022-11-15T04:47:55.350Z,78.95
2022-11-15T04:48:59.186Z,78.25
2022-11-15T04:50:01.345Z,78.88
2022-11-15T04:51:03.357Z,78.51
2022-11-15T04:52:05.271Z,78.49
2022-11-15T04:53:07.660Z,78.78
2022-11-15T04:54:09.453Z,78.10
2022-11-15T04:55:11.955Z,78.43
2022-11-15T04:56:13.718Z,78.97
2022-11-15T04:57:16.017Z,78.54
2022-11-15T04:58:17.753Z,79.43
2022-11-15T04:59:19.556Z,78.68
2022-11-15T05:00:21.466Z,78.62
2022-11-15T05:01:23.373Z,78.81
2022-11-15T05:02:25.224Z,78.36
2022-11-15T05:03:45.500Z,78.32
2022-11-15T05:04:47.230Z,78.26
2022-11-15T05:05:49.239Z,78.68
2022-11-15T05:06:52.071Z,78.74
2022-11-15T05:07:53.912Z,79.04
2022-11-15T05:08:55.922Z,78.24
2022-11-15T05:09:57.751Z,78.23
2022-11-15T05:10:59.640Z,78.47
2022-11-15T05:12:01.442Z,78.51
2022-11-15T05:13:03.145Z,79.51
2022-11-15T05:14:05.055Z,79.56
2022-11-15T05:15:07.090Z,79.97
2022-11-15T05:16:08.958Z,79.69
2022-11-15T05:17:10.812Z,80.43
2022-11-15T05:18:12.695Z,80.30
2022-11-15T05:19:14.474Z,80.19
2022-11-15T05:20:16.249Z,80.72
2022-11-15T05:21:18.142Z,79.77
2022-11-15T05:22:20.719Z,79.81
2022-11-15T05:23:22.563Z,79.72
2022-11-15T05:24:24.477Z,79.57
2022-11-15T05:25:26.438Z,79.81
2022-11-15T05:26:28.366Z,79.94
2022-11-15T05:27:30.252Z,79.22
2022-11-15T05:28:32.825Z,79.42
2022-11-15T05:29:34.584Z,79.53
2022-11-15T05:30:36.398Z,79.73
2022-11-15T05:31:40.634Z,78.73
2022-11-15T05:32:42.416Z,79.31
2022-11-15T05:33:44.998Z,79.44
2022-11-15T05:34:46.870Z,78.83
2022-11-15T05:35:52.100Z,79.56
2022-11-15T05:36:54.018Z,80.42
2022-11-15T05:37:55.877Z,79.54
2022-11-15T05:38:57.653Z,80.02
2022-11-15T05:39:59.477Z,80.55
2022-11-15T05:41:02.186Z,79.94
2022-11-15T05:42:14.601Z,80.59
2022-11-15T05:43:16.507Z,80.13
2022-11-15T05:44:21.590Z,79.68
2022-11-15T05:45:26.954Z,80.20
2022-11-15T05:46:29.608Z,80.46
2022-11-15T05:47:32.114Z,80.09
2022-11-15T05:48:35.482Z,79.96
2022-11-15T05:49:39.222Z,80.16
2022-11-15T05:50:43.158Z,79.84
2022-11-15T05:51:45.841Z,80.07
2022-11-15T05:52:48.580Z,79.28
2022-11-15T05:53:51.518Z,80.38
2022-11-15T05:54:53.817Z,79.45
2022-11-15T05:55:55.719Z,80.80
2022-11-15T05:56:57.533Z,81.13
2022-11-15T05:57:59.409Z,80.71
2022-11-15T05:59:01.270Z,81.16
2022-11-15T06:00:04.005Z,81.88
2022-11-15T06:01:05.962Z,81.94
2022-11-15T06:02:08.175Z,81.00
2022-11-15T06:03:10.381Z,82.00
2022-11-15T06:04:12.212Z,81.86
2022-11-15T06:05:14.024Z,81.84
2022-11-15T06:06:16.579Z,81.74
2022-11-15T06:07:18.749Z,82.05
2022-11-15T06:08:20.685Z,81.47
2022-11-15T06:09:22.481Z,81.95
2022-11-15T06:10:24.314Z,82.04
2022-11-15T06:11:26.104Z,82.38
2022-11-15T06:12:27.896Z,83.54
2022-11-15T06:13:30.013Z,83.94
2022-11-15T06:14:32.189Z,83.99
2022-11-15T06:15:37.398Z,84.59
2022-11-15T06:16:39.239Z,84.17
2022-11-15T06:17:41.069Z,84.71
2022-11-15T06:18:43.185Z,84.57
2022-11-15T06:19:45.014Z,85.06
2022-11-15T06:20:46.762Z,84.40
2022-11-15T06:21:48.563Z,84.30
2022-11-15T06:22:50.339Z,84.31
2022-11-15T06:23:52.192Z,84.34
2022-11-15T06:24:53.993Z,84.28
2022-11-15T06:25:59.205Z,84.57
2022-11-15T06:27:01.235Z,84.74
2022-11-15T06:28:03.164Z,84.92
2022-11-15T06:29:05.926Z,84.68
2022-11-15T06:30:08.193Z,84.50
2022-11-15T06:31:12.277Z,84.40
2022-11-15T06:32:14.048Z,84.65
2022-11-15T06:33:15.896Z,85.41
2022-11-15T06:34:17.842Z,85.04
2022-11-15T06:35:19.791Z,85.30
2022-11-15T06:36:21.975Z,85.04
2022-11-15T06:37:23.729Z,85.25
2022-11-15T06:38:25.523Z,85.37
2022-11-15T06:39:27.324Z,85.68
2022-11-15T06:40:29.211Z,85.40
2022-11-15T06:41:31.036Z,86.22
2022-11-15T06:42:32.917Z,86.63
2022-11-15T06:43:35.186Z,86.88
2022-11-15T06:44:37.190Z,86.20
2022-11-15T06:45:39.133Z,86.80
2022-11-15T06:46:40.935Z,86.39
2022-11-15T06:47:48.742Z,86.59
2022-11-15T06:48:52.348Z,87.44
2022-11-15T06:49:54.175Z,87.69
2022-11-15T06:50:57.465Z,87.10
2022-11-15T06:51:59.268Z,87.17
2022-11-15T06:53:06.822Z,86.64
2022-11-15T06:54:08.612Z,87.08
2022-11-15T06:55:10.551Z,87.18
2022-11-15T06:56:12.447Z,87.26
2022-11-15T06:57:14.298Z,86.99
2022-11-15T06:58:16.136Z,86.60
2022-11-15T06:59:18.000Z,86.39
2022-11-15T07:00:20.659Z,86.72
2022-11-15T07:01:22.576Z,86.31
2022-11-15T07:02:24.450Z,86.79
2022-11-15T07:03:26.491Z,86.54
2022-11-15T07:04:28.260Z,86.61
2022-11-15T07:05:30.396Z,86.40
2022-11-15T07:06:32.269Z,86.24
2022-11-15T07:07:34.116Z,86.73
2022-11-15T07:08:36.662Z,86.59
2022-11-15T07:09:38.504Z,86.79
2022-11-15T07:10:40.342Z,86.74
2022-11-15T07:11:42.273Z,87.12
2022-11-15T07:12:44.107Z,87.79
2022-11-15T07:13:45.983Z,87.99
2022-11-15T07:14:47.846Z,86.91
2022-11-15T07:15:49.632Z,87.53
2022-11-15T07:16:51.448Z,87.14
2022-11-15T07:17:53.231Z,87.15
2022-11-15T07:18:55.043Z,86.83
2022-11-15T07:19:56.940Z,86.44
2022-11-15T07:21:01.602Z,86.17
2022-11-15T07:22:03.469Z,86.88
2022-11-15T07:23:06.720Z,86.59
2022-11-15T07:24:08.791Z,86.48
2022-11-15T07:25:10.694Z,85.71
2022-11-15T07:26:12.620Z,85.91
2022-11-15T07:27:14.741Z,85.75
2022-11-15T07:28:16.607Z,85.62
2022-11-15T07:29:18.412Z,85.71
2022-11-15T07:30:20.197Z,85.42
2022-11-15T07:31:22.032Z,85.27
2022-11-15T07:32:23.886Z,85.81
2022-11-15T07:33:25.652Z,85.68
2022-11-15T07:34:27.571Z,85.26
2022-11-15T07:35:30.123Z,85.11
2022-11-15T07:36:32.122Z,85.89
2022-11-15T07:37:34.008Z,85.61
2022-11-15T07:38:42.217Z,85.24
2022-11-15T07:39:44.863Z,85.54
2022-11-15T07:40:47.846Z,86.08
2022-11-15T07:41:50.777Z,85.67
2022-11-15T07:42:55.407Z,85.19
2022-11-15T07:43:57.430Z,85.58
2022-11-15T07:44:59.225Z,85.99
2022-11-15T07:46:05.621Z,86.06
2022-11-15T07:47:07.578Z,86.04
2022-11-15T07:48:09.328Z,85.71
2022-11-15T07:49:11.172Z,85.44
2022-11-15T07:50:13.040Z,85.47
2022-11-15T07:51:16.200Z,85.74
2022-11-15T07:52:18.055Z,84.96
2022-11-15T07:53:19.804Z,85.52
2022-11-15T07:54:21.659Z,85.34
2022-11-15T07:55:24.450Z,85.25
2022-11-15T07:56:26.456Z,84.83
2022-11-15T07:57:28.178Z,85.40
2022-11-15T07:58:30.061Z,84.90
2022-11-15T07:59:31.879Z,85.40
2022-11-15T08:00:34.133Z,85.51
2022-11-15T08:01:36.347Z,85.26
2022-11-15T08:02:38.376Z,85.94
2022-11-15T08:03:40.600Z,85.40
2022-11-15T08:04:42.609Z,85.48
2022-11-15T08:05:44.818Z,85.81
2022-11-15T08:06:47.248Z,85.38
2022-11-15T08:07:51.842Z,86.42
2022-11-15T08:08:54.655Z,85.74
2022-11-15T08:09:56.506Z,85.81
2022-11-15T08:11:02.117Z,85.50
2022-11-15T08:12:04.229Z,85.14
2022-11-15T08:13:07.878Z,85.41
2022-11-15T08:14:09.873Z,84.89
2022-11-15T08:15:11.839Z,84.63
2022-11-15T08:16:14.061Z,84.58
2022-11-15T08:17:16.116Z,85.41
2022-11-15T08:18:18.353Z,84.96
2022-11-15T08:19:20.410Z,84.66
2022-11-15T08:20:22.764Z,85.12
2022-11-15T08:21:24.774Z,84.30
2022-11-15T08:22:26.766Z,83.88
2022-11-15T08:23:29.250Z,84.33
2022-11-15T08:24:31.550Z,84.39
2022-11-15T08:25:34.699Z,83.80
2022-11-15T08:26:36.638Z,83.75
2022-11-15T08:27:38.557Z,84.08
2022-11-15T08:28:40.650Z,83.98
2022-11-15T08:29:46.040Z,83.53
2022-11-15T08:30:48.167Z,83.59
2022-11-15T08:31:50.138Z,83.08
2022-11-15T08:32:53.370Z,83.03
2022-11-15T08:33:55.485Z,82.20
2022-11-15T08:34:57.378Z,82.73
2022-11-15T08:36:00.079Z,81.96
2022-11-15T08:37:02.032Z,82.17
2022-11-15T08:38:04.103Z,81.87
2022-11-15T08:39:06.628Z,82.32
2022-11-15T08:40:08.904Z,81.91
2022-11-15T08:41:13.819Z,81.47
2022-11-15T08:42:20.082Z,81.98
2022-11-15T08:43:22.252Z,81.25
2022-11-15T08:44:25.387Z,81.02
2022-11-15T08:45:27.848Z,81.19
2022-11-15T08:46:29.706Z,81.22
2022-11-15T08:47:31.985Z,81.14
2022-11-15T08:48:33.899Z,80.99
2022-11-15T08:49:36.201Z,80.69
2022-11-15T08:50:38.297Z,79.55
2022-11-15T08:51:40.344Z,79.49
2022-11-15T08:52:42.454Z,79.38
2022-11-15T08:53:44.334Z,79.66
2022-11-15T08:54:46.253Z,79.09
2022-11-15T08:55:48.323Z,78.84
2022-11-15T08:56:50.123Z,78.74
2022-11-15T08:57:52.311Z,77.78
2022-11-15T08:58:54.148Z,77.83
2022-11-15T08:59:56.159Z,78.51
2022-11-15T09:00:58.018Z,78.70
2022-11-15T09:01:59.963Z,77.94
2022-11-15T09:03:05.272Z,78.01
2022-11-15T09:04:07.323Z,78.13
2022-11-15T09:05:09.435Z,77.42
2022-11-15T09:06:12.035Z,77.77
2022-11-15T09:07:14.770Z,77.53
2022-11-15T09:08:45.654Z,77.66
2022-11-15T09:09:39.443Z,76.76
2022-11-15T09:10:41.294Z,76.66
2022-11-15T09:11:43.088Z,77.18
2022-11-15T09:12:45.164Z,77.48
2022-11-15T09:13:47.320Z,77.24
2022-11-15T09:14:49.357Z,77.23
2022-11-15T09:15:51.176Z,76.67
2022-11-15T09:16:52.956Z,76.83
2022-11-15T09:17:54.806Z,76.44
2022-11-15T09:18:56.975Z,75.53
2022-11-15T09:19:58.929Z,75.22
2022-11-15T09:21:01.197Z,75.21
2022-11-15T09:22:03.121Z,75.43
2022-11-15T09:23:05.912Z,75.43
2022-11-15T09:24:07.831Z,74.57
2022-11-15T09:25:11.228Z,74.10
2022-11-15T09:26:14.134Z,73.80
2022-11-15T09:27:16.135Z,73.85
2022-11-15T09:28:18.104Z,74.00
2022-11-15T09:29:20.157Z,73.75
2022-11-15T09:30:22.209Z,73.84
2022-11-15T09:31:24.320Z,73.73
2022-11-15T09:32:32.210Z,74.08
2022-11-15T09:33:36.948Z,74.32
2022-11-15T09:34:39.122Z,73.97
2022-11-15T09:35:42.523Z,73.84
2022-11-15T09:36:44.447Z,72.58
2022-11-15T09:37:47.024Z,72.09
2022-11-15T09:38:50.606Z,71.78
2022-11-15T09:39:52.594Z,72.03
2022-11-15T09:41:00.176Z,71.75
2022-11-15T09:42:12.100Z,72.28
2022-11-15T09:43:25.873Z,72.13
2022-11-15T09:44:42.493Z,72.00
2022-11-15T09:46:04.742Z,70.84
2022-11-15T09:47:25.199Z,70.93
2022-11-15T09:48:46.077Z,70.54
2022-11-15T09:49:56.608Z,70.31
2022-11-15T09:51:02.561Z,69.78
2022-11-15T09:52:04.715Z,70.27
2022-11-15T09:53:10.873Z,69.18
2022-11-15T09:56:10.847Z,70.20
2022-11-15T09:57:15.975Z,68.36
2022-11-15T09:58:23.270Z,67.68
2022-11-15T09:59:48.174Z,69.19
2022-11-15T10:00:53.990Z,67.29
2022-11-15T10:01:56.153Z,67.03
2022-11-15T10:02:58.060Z,67.69
2022-11-15T10:04:00.731Z,68.33
2022-11-15T10:05:02.832Z,67.92
2022-11-15T10:06:06.450Z,66.86
2022-11-15T10:07:22.829Z,66.67
2022-11-15T10:08:43.685Z,66.87
2022-11-15T10:09:48.958Z,67.02
2022-11-15T10:11:15.726Z,66.90
2022-11-15T10:12:17.057Z,65.82
2022-11-15T10:13:25.168Z,65.91
2022-11-15T10:14:28.956Z,65.82
2022-11-15T10:15:31.255Z,65.19
2022-11-15T10:16:45.681Z,65.45
2022-11-15T10:18:09.293Z,65.57
2022-11-15T10:19:17.696Z,65.01
2022-11-15T10:20:22.277Z,65.61
2022-11-15T10:21:34.017Z,64.21
2022-11-15T10:22:52.294Z,64.42
2022-11-15T10:23:54.793Z,65.59
2022-11-15T10:25:15.504Z,64.83
2022-11-15T10:26:18.714Z,64.06
2022-11-15T10:27:21.277Z,63.63
2022-11-15T10:28:23.448Z,63.34
2022-11-15T10:29:27.029Z,63.65
2022-11-15T10:30:33.713Z,63.38
2022-11-15T10:31:35.758Z,63.50
2022-11-15T10:32:37.772Z,62.73
2022-11-15T10:33:40.836Z,62.38
2022-11-15T10:34:43.143Z,62.64
2022-11-15T10:35:45.027Z,62.10
2022-11-15T10:36:50.280Z,62.52
2022-11-15T10:37:52.510Z,63.10
2022-11-15T10:38:55.898Z,62.95
2022-11-15T10:40:08.636Z,63.64
2022-11-15T10:41:13.129Z,62.83
2022-11-15T10:42:28.605Z,62.20
2022-11-15T10:43:30.647Z,62.50
2022-11-15T10:44:33.230Z,62.25
2022-11-15T10:45:35.965Z,61.62
2022-11-15T10:46:46.751Z,62.15
2022-11-15T10:47:49.472Z,61.79
2022-11-15T10:48:51.742Z,62.56
2022-11-15T10:50:01.667Z,62.17
2022-11-15T10:51:20.376Z,62.40
2022-11-15T10:52:23.713Z,62.70
2022-11-15T10:53:29.183Z,61.83
2022-11-15T10:54:45.706Z,61.87
2022-11-15T10:55:48.664Z,61.59
2022-11-15T10:56:55.009Z,61.58
2022-11-15T10:58:01.745Z,61.57
2022-11-15T10:59:03.732Z,62.72
2022-11-15T11:00:07.961Z,61.41
2022-11-15T11:01:13.173Z,60.93
2022-11-15T11:02:34.116Z,59.61
2022-11-15T11:03:39.356Z,60.39
2022-11-15T11:04:53.237Z,60.64
2022-11-15T11:06:15.297Z,60.98
2022-11-15T11:07:27.964Z,60.08
2022-11-15T11:08:30.300Z,59.56
2022-11-15T11:09:39.784Z,59.84
2022-11-15T11:10:57.186Z,59.08
2022-11-15T11:12:03.514Z,60.13
2022-11-15T11:13:15.606Z,59.36
2022-11-15T11:14:22.452Z,59.73
2022-11-15T11:15:29.141Z,60.55
2022-11-15T11:16:39.584Z,60.85
2022-11-15T11:17:50.632Z,60.47
2022-11-15T11:19:01.749Z,59.77
2022-11-15T11:20:22.139Z,59.83
2022-11-15T11:21:32.944Z,59.68
2022-11-15T11:22:35.061Z,60.69
2022-11-15T11:23:45.890Z,60.06
2022-11-15T11:25:07.282Z,60.57
2022-11-15T11:26:17.451Z,59.04
2022-11-15T11:27:32.054Z,60.12
2022-11-15T11:28:37.163Z,60.86
2022-11-15T11:29:57.538Z,60.95
2022-11-15T11:31:18.393Z,61.30
2022-11-15T11:32:23.355Z,61.31
2022-11-15T11:33:34.237Z,60.54
2022-11-15T11:34:55.026Z,60.99
2022-11-15T11:35:59.855Z,61.90
2022-11-15T11:37:20.615Z,61.60
2022-11-15T11:38:22.492Z,61.30
2022-11-15T11:39:40.613Z,60.99
2022-11-15T11:40:45.189Z,58.17
2022-11-15T11:41:50.092Z,57.06
2022-11-15T11:43:13.576Z,57.56
2022-11-15T11:44:18.413Z,57.66
2022-11-15T11:45:29.525Z,57.90
2022-11-15T11:46:49.119Z,58.40
2022-11-15T11:48:06.266Z,57.85
2022-11-15T11:49:13.790Z,56.38
2022-11-15T11:50:19.646Z,55.40
2022-11-15T11:51:30.455Z,55.74
2022-11-15T11:52:32.333Z,56.18
2022-11-15T11:53:48.151Z,56.50
2022-11-15T11:55:01.911Z,55.03
2022-11-15T11:56:05.730Z,56.03
2022-11-15T11:57:14.022Z,55.72
2022-11-15T11:58:19.016Z,54.71
2022-11-15T11:59:23.980Z,54.26
2022-11-15T12:00:28.943Z,54.87
2022-11-15T12:01:43.433Z,54.38
2022-11-15T12:02:49.723Z,54.26
2022-11-15T12:03:58.463Z,52.88
2022-11-15T12:05:23.804Z,54.01
2022-11-15T12:06:38.993Z,54.02
2022-11-15T12:07:42.225Z,54.95
2022-11-15T12:09:06.430Z,55.39
2022-11-15T12:10:24.377Z,54.30
2022-11-15T12:11:45.634Z,54.79
2022-11-15T12:12:50.285Z,54.24
2022-11-15T12:13:57.613Z,52.09
2022-11-15T12:14:59.425Z,53.12
2022-11-15T12:16:09.253Z,56.03
2022-11-15T12:17:13.260Z,56.76
2022-11-15T12:18:16.997Z,55.23
2022-11-15T12:19:19.076Z,54.93
2022-11-15T12:20:23.157Z,55.08
2022-11-15T12:21:48.058Z,57.64
2022-11-15T12:22:52.941Z,58.03
2022-11-15T12:23:59.535Z,57.68
2022-11-15T12:25:05.575Z,58.00
2022-11-15T12:26:14.204Z,57.84
2022-11-15T12:27:24.932Z,58.31
2022-11-15T12:29:06.437Z,58.65
2022-11-15T12:30:13.303Z,57.82
2022-11-15T12:31:37.104Z,57.63
2022-11-15T12:32:39.981Z,58.91
2022-11-15T12:33:43.724Z,58.71
2022-11-15T12:34:47.731Z,57.94
2022-11-15T12:35:58.927Z,57.15
2022-11-15T12:37:01.026Z,57.09
2022-11-15T12:38:03.594Z,56.73
2022-11-15T12:39:12.172Z,56.28
2022-11-15T12:40:22.255Z,56.41
2022-11-15T12:41:25.679Z,55.48
2022-11-15T12:42:30.223Z,56.15
2022-11-15T12:43:42.473Z,56.33
2022-11-15T12:44:44.569Z,57.25
2022-11-15T12:45:46.900Z,57.15
2022-11-15T12:46:48.745Z,57.08
2022-11-15T12:47:50.606Z,57.52
2022-11-15T12:48:57.043Z,57.75
2022-11-15T12:49:58.912Z,56.91
2022-11-15T12:51:01.371Z,57.66
2022-11-15T12:52:03.225Z,57.88
2022-11-15T12:53:23.967Z,58.47
2022-11-15T12:54:25.825Z,57.90
2022-11-15T12:55:34.067Z,58.20
2022-11-15T12:56:35.901Z,58.15
2022-11-15T12:57:42.915Z,58.19
2022-11-15T12:58:47.850Z,58.11
2022-11-15T12:59:56.165Z,57.85
2022-11-15T13:00:58.158Z,58.19
2022-11-15T13:02:00.506Z,58.79
2022-11-15T13:03:34.727Z,58.88
2022-11-15T13:04:36.914Z,58.92
2022-11-15T13:05:41.713Z,59.37
2022-11-15T13:06:45.711Z,59.80
2022-11-15T13:07:47.645Z,59.84
2022-11-15T13:08:50.878Z,59.71
2022-11-15T13:09:53.636Z,59.71
2022-11-15T13:10:55.490Z,60.19
2022-11-15T13:11:58.695Z,60.21
2022-11-15T13:13:02.059Z,60.27
2022-11-15T13:14:23.815Z,59.78
2022-11-15T13:15:31.630Z,60.02
2022-11-15T13:16:33.445Z,60.47
2022-11-15T13:17:55.480Z,60.38
2022-11-15T13:18:59.418Z,60.71
2022-11-15T13:20:02.878Z,60.27
2022-11-15T13:21:26.118Z,60.74
2022-11-15T13:22:47.220Z,60.78
2022-11-15T13:23:52.968Z,61.07
2022-11-15T13:24:55.634Z,60.98
2022-11-15T13:26:06.644Z,61.13
2022-11-15T13:27:17.378Z,60.91
2022-11-15T13:28:19.062Z,60.98
2022-11-15T13:29:21.413Z,60.92
2022-11-15T13:30:25.615Z,61.11
2022-11-15T13:31:37.284Z,60.91
2022-11-15T13:32:39.593Z,60.83
2022-11-15T13:33:41.406Z,60.72
2022-11-15T13:34:52.677Z,60.74
2022-11-15T13:36:17.969Z,60.92
2022-11-15T13:37:22.410Z,61.15
2022-11-15T13:38:29.883Z,60.78
2022-11-15T13:39:33.427Z,61.00
2022-11-15T13:40:38.915Z,60.74
2022-11-15T13:41:48.964Z,60.68
2022-11-15T13:42:51.102Z,60.26
2022-11-15T13:43:53.951Z,60.52
2022-11-15T13:45:00.188Z,60.75
2022-11-15T13:46:04.944Z,60.93
2022-11-15T13:47:08.273Z,61.05
2022-11-15T13:48:10.106Z,61.51
2022-11-15T13:49:14.830Z,61.51
2022-11-15T13:50:16.791Z,61.44
2022-11-15T13:51:18.662Z,61.33
2022-11-15T13:52:21.677Z,61.62
2022-11-15T13:53:23.796Z,61.77
2022-11-15T13:54:31.163Z,62.12
2022-11-15T13:55:34.369Z,61.77
2022-11-15T13:56:37.075Z,62.02
2022-11-15T13:57:44.734Z,62.14
2022-11-15T13:58:46.880Z,62.27
2022-11-15T13:59:51.328Z,62.31
2022-11-15T14:01:00.435Z,62.34
2022-11-15T14:02:04.910Z,62.76